createdAt,value
2018-12-02T00:00:19.392Z,15.45
2018-12-02T00:02:47.155Z,15.88
2018-12-02T00:05:14.945Z,16.17
2018-12-02T00:07:42.730Z,16.37
2018-12-02T00:10:11.650Z,14.28
2018-12-02T00:12:39.386Z,15.40
2018-12-02T00:15:14.401Z,16.23
2018-12-02T00:17:42.126Z,16.25
2018-12-02T00:20:11.882Z,15.43
2018-12-02T00:22:39.792Z,15.48
2018-12-02T00:25:10.683Z,16.45
2018-12-02T00:27:38.587Z,15.00
2018-12-02T00:30:12.692Z,14.75
2018-12-02T00:32:40.504Z,15.85
2018-12-02T00:35:10.500Z,15.15
2018-12-02T00:37:38.610Z,16.77
2018-12-02T00:40:10.820Z,16.62
2018-12-02T00:42:38.780Z,16.17
2018-12-02T00:45:09.531Z,16.12
2018-12-02T00:47:37.306Z,15.05
2018-12-02T00:50:07.942Z,16.40
2018-12-02T00:52:35.710Z,15.93
2018-12-02T00:55:03.940Z,15.40
2018-12-02T00:57:31.640Z,15.10
2018-12-02T00:59:59.359Z,14.80
2018-12-02T01:02:27.129Z,15.10
2018-12-02T01:04:54.939Z,16.93
2018-12-02T01:07:22.701Z,16.23
2018-12-02T01:09:50.384Z,16.10
2018-12-02T01:12:18.124Z,15.53
2018-12-02T01:14:45.832Z,16.60
2018-12-02T01:17:13.566Z,16.32
2018-12-02T01:19:41.329Z,16.95
2018-12-02T01:22:09.107Z,16.17
2018-12-02T01:24:36.800Z,17.95
2018-12-02T01:27:04.595Z,17.62
2018-12-02T01:29:32.294Z,17.32
2018-12-02T01:32:00.023Z,16.37
2018-12-02T01:34:27.776Z,17.65
2018-12-02T01:36:55.520Z,16.85
2018-12-02T01:39:23.287Z,16.90
2018-12-02T01:41:51.037Z,18.30
2018-12-02T01:44:18.842Z,17.75
2018-12-02T01:46:46.562Z,17.35
2018-12-02T01:49:14.297Z,17.12
2018-12-02T01:51:42.029Z,17.35
2018-12-02T01:54:09.806Z,18.62
2018-12-02T01:56:37.567Z,17.87
2018-12-02T01:59:05.844Z,17.67
2018-12-02T02:01:33.593Z,16.60
2018-12-02T02:04:01.364Z,17.73
2018-12-02T02:06:29.067Z,19.05
2018-12-02T02:08:56.808Z,18.00
2018-12-02T02:11:24.579Z,18.60
2018-12-02T02:13:52.335Z,17.80
2018-12-02T02:16:20.068Z,17.98
2018-12-02T02:18:47.811Z,18.52
2018-12-02T02:21:15.783Z,18.42
2018-12-02T02:23:43.543Z,15.95
2018-12-02T02:26:11.296Z,17.02
2018-12-02T02:28:38.992Z,17.07
2018-12-02T02:31:06.735Z,19.12
2018-12-02T02:33:34.567Z,16.90
2018-12-02T02:36:02.259Z,18.23
2018-12-02T02:38:30.004Z,17.57
2018-12-02T02:40:57.743Z,17.05
2018-12-02T02:43:25.499Z,16.75
2018-12-02T02:45:53.249Z,17.12
2018-12-02T02:48:20.933Z,18.45
2018-12-02T02:50:48.698Z,17.70
2018-12-02T02:53:16.422Z,17.20
2018-12-02T02:55:44.144Z,16.87
2018-12-02T02:58:11.897Z,18.42
2018-12-02T03:00:39.702Z,17.35
2018-12-02T03:03:07.438Z,16.12
2018-12-02T03:05:35.162Z,17.60
2018-12-02T03:08:02.918Z,17.37
2018-12-02T03:10:30.645Z,16.77
2018-12-02T03:12:58.386Z,17.37
2018-12-02T03:15:26.072Z,16.02
2018-12-02T03:17:53.818Z,16.27
2018-12-02T03:20:22.142Z,15.72
2018-12-02T03:22:53.653Z,16.90
2018-12-02T03:25:22.576Z,17.60
2018-12-02T03:27:50.663Z,17.50
2018-12-02T03:30:19.287Z,15.72
2018-12-02T03:32:47.205Z,16.60
2018-12-02T03:35:19.998Z,15.10
2018-12-02T03:37:47.764Z,17.32
2018-12-02T03:40:19.367Z,15.88
2018-12-02T03:42:47.171Z,15.08
2018-12-02T03:45:15.943Z,14.87
2018-12-02T03:47:43.763Z,16.07
2018-12-02T03:50:17.809Z,13.90
2018-12-02T03:52:44.175Z,16.25
2018-12-02T03:55:12.052Z,16.37
2018-12-02T03:57:39.848Z,15.23
2018-12-02T04:00:16.739Z,16.60
2018-12-02T04:02:44.460Z,15.00
2018-12-02T04:05:13.532Z,15.60
2018-12-02T04:07:41.296Z,15.45
2018-12-02T04:10:13.992Z,16.40
2018-12-02T04:12:41.874Z,15.35
2018-12-02T04:15:12.020Z,15.43
2018-12-02T04:17:39.799Z,16.95
2018-12-02T04:20:12.484Z,14.70
2018-12-02T04:22:40.318Z,15.75
2018-12-02T04:25:10.423Z,14.63
2018-12-02T04:27:38.160Z,14.03
2018-12-02T04:30:14.560Z,15.18
2018-12-02T04:32:42.415Z,14.55
2018-12-02T04:35:12.428Z,14.93
2018-12-02T04:37:40.212Z,16.52
2018-12-02T04:40:09.251Z,16.12
2018-12-02T04:42:36.993Z,15.58
2018-12-02T04:45:07.300Z,14.90
2018-12-02T04:47:35.052Z,15.20
2018-12-02T04:50:03.361Z,14.90
2018-12-02T04:52:31.108Z,14.78
2018-12-02T04:54:58.880Z,14.25
2018-12-02T04:57:26.673Z,14.10
2018-12-02T04:59:54.381Z,16.42
2018-12-02T05:02:22.080Z,15.03
2018-12-02T05:04:49.831Z,13.78
2018-12-02T05:07:17.592Z,14.50
2018-12-02T05:09:45.335Z,14.65
2018-12-02T05:12:13.020Z,12.90
2018-12-02T05:14:40.728Z,12.07
2018-12-02T05:17:08.535Z,13.62
2018-12-02T05:19:36.237Z,12.95
2018-12-02T05:22:04.387Z,12.35
2018-12-02T05:24:32.104Z,11.70
2018-12-02T05:26:59.805Z,12.70
2018-12-02T05:29:27.576Z,13.85
2018-12-02T05:31:55.645Z,13.03
2018-12-02T05:34:23.376Z,12.15
2018-12-02T05:36:51.092Z,12.07
2018-12-02T05:39:18.836Z,13.60
2018-12-02T05:41:52.033Z,13.85
2018-12-02T05:44:19.790Z,12.90
2018-12-02T05:46:47.534Z,14.50
2018-12-02T05:49:15.212Z,14.93
2018-12-02T05:51:42.939Z,15.58
2018-12-02T05:54:10.711Z,15.63
2018-12-02T05:56:38.431Z,14.25
2018-12-02T05:59:06.238Z,14.85
2018-12-02T06:01:33.938Z,15.08
2018-12-02T06:04:01.694Z,15.78
2018-12-02T06:06:29.428Z,14.68
2018-12-02T06:08:57.179Z,13.83
2018-12-02T06:11:24.900Z,14.43
2018-12-02T06:13:52.709Z,14.07
2018-12-02T06:16:20.417Z,15.35
2018-12-02T06:18:48.151Z,16.00
2018-12-02T06:21:15.942Z,17.23
2018-12-02T06:23:43.796Z,17.00
2018-12-02T06:26:11.644Z,17.92
2018-12-02T06:28:39.405Z,14.98
2018-12-02T06:31:07.205Z,15.90
2018-12-02T06:33:34.923Z,16.40
2018-12-02T06:36:02.701Z,15.93
2018-12-02T06:38:30.587Z,16.10
2018-12-02T06:40:58.286Z,16.73
2018-12-02T06:43:26.069Z,16.37
2018-12-02T06:45:53.832Z,17.92
2018-12-02T06:48:21.544Z,17.82
2018-12-02T06:50:49.320Z,19.55
2018-12-02T06:53:17.075Z,17.62
2018-12-02T06:55:53.154Z,18.10
2018-12-02T06:58:31.217Z,17.60
2018-12-02T07:01:16.063Z,20.20
2018-12-02T07:03:55.339Z,26.68
2018-12-02T07:06:23.074Z,23.50
2018-12-02T07:08:50.841Z,29.60
2018-12-02T07:11:18.608Z,27.17
2018-12-02T07:13:46.316Z,21.00
2018-12-02T07:16:14.083Z,22.30
2018-12-02T07:18:46.404Z,20.75
2018-12-02T07:21:18.615Z,21.20
2018-12-02T07:23:50.891Z,21.77
2018-12-02T07:26:22.560Z,24.67
2018-12-02T07:28:50.328Z,22.70
2018-12-02T07:31:18.106Z,19.07
2018-12-02T07:33:45.818Z,20.68
2018-12-02T07:36:13.603Z,21.02
2018-12-02T07:39:07.760Z,18.50
2018-12-02T07:41:35.555Z,22.52
2018-12-02T07:44:03.263Z,20.17
2018-12-02T07:46:31.014Z,20.37
2018-12-02T07:48:58.792Z,19.50
2018-12-02T07:51:26.506Z,19.10
2018-12-02T07:53:54.216Z,17.75
2018-12-02T07:56:21.948Z,19.00
2018-12-02T07:58:49.711Z,25.50
2018-12-02T08:01:17.447Z,25.48
2018-12-02T08:03:45.208Z,29.20
2018-12-02T08:06:13.008Z,19.62
2018-12-02T08:08:40.712Z,16.93
2018-12-02T08:11:08.466Z,17.95
2018-12-02T08:13:36.225Z,18.90
2018-12-02T08:16:03.936Z,25.65
2018-12-02T08:18:31.649Z,19.55
2018-12-02T08:20:59.402Z,19.90
2018-12-02T08:23:27.127Z,19.00
2018-12-02T08:25:54.881Z,20.20
2018-12-02T08:28:22.619Z,21.57
2018-12-02T08:30:50.398Z,20.02
2018-12-02T08:33:18.122Z,18.65
2018-12-02T08:35:45.923Z,19.87
2018-12-02T08:38:13.648Z,16.37
2018-12-02T08:40:41.337Z,16.17
2018-12-02T08:43:09.106Z,15.08
2018-12-02T08:45:38.080Z,17.52
2018-12-02T08:48:04.920Z,16.57
2018-12-02T08:50:32.727Z,17.85
2018-12-02T08:53:00.452Z,18.87
2018-12-02T08:55:28.192Z,22.93
2018-12-02T08:57:55.945Z,27.87
2018-12-02T09:00:33.480Z,20.60
2018-12-02T09:03:03.175Z,18.25
2018-12-02T09:05:31.027Z,17.57
2018-12-02T09:07:59.955Z,20.17
2018-12-02T09:10:28.879Z,17.12
2018-12-02T09:12:59.870Z,17.65
2018-12-02T09:15:27.649Z,15.68
2018-12-02T09:17:55.409Z,16.73
2018-12-02T09:20:26.552Z,14.90
2018-12-02T09:22:54.296Z,14.10
2018-12-02T09:25:22.104Z,15.32
2018-12-02T09:27:50.006Z,15.70
2018-12-02T09:30:33.656Z,13.83
2018-12-02T09:33:01.420Z,13.45
2018-12-02T09:35:29.202Z,13.60
2018-12-02T09:37:56.939Z,14.95
2018-12-02T09:40:24.720Z,14.68
2018-12-02T09:42:53.518Z,13.20
2018-12-02T09:45:26.164Z,13.32
2018-12-02T09:47:55.322Z,13.75
2018-12-02T09:50:23.016Z,14.35
2018-12-02T09:52:50.831Z,15.98
2018-12-02T09:55:21.679Z,13.68
2018-12-02T09:57:49.637Z,13.08
2018-12-02T10:00:18.664Z,14.33
2018-12-02T10:02:46.467Z,12.85
2018-12-02T10:05:14.295Z,14.23
2018-12-02T10:07:42.037Z,12.90
2018-12-02T10:10:22.445Z,13.93
2018-12-02T10:13:19.051Z,12.33
2018-12-02T10:15:46.838Z,12.55
2018-12-02T10:18:14.700Z,14.47
2018-12-02T10:20:42.480Z,12.82
2018-12-02T10:23:10.290Z,13.72
2018-12-02T10:25:38.046Z,13.45
2018-12-02T10:28:06.574Z,14.28
2018-12-02T10:30:34.639Z,13.70
2018-12-02T10:33:02.380Z,14.55
2018-12-02T10:35:30.136Z,31.07
2018-12-02T10:37:57.824Z,22.32
2018-12-02T10:40:26.617Z,16.45
2018-12-02T10:42:54.356Z,15.20
2018-12-02T10:45:25.172Z,15.28
2018-12-02T10:47:54.187Z,16.55
2018-12-02T10:50:27.119Z,17.60
2018-12-02T10:52:58.149Z,17.15
2018-12-02T10:55:35.913Z,15.78
2018-12-02T10:58:03.720Z,16.60
2018-12-02T11:00:37.095Z,19.37
2018-12-02T11:03:04.884Z,15.88
2018-12-02T11:05:32.668Z,19.25
2018-12-02T11:08:00.415Z,16.67
2018-12-02T11:10:28.132Z,15.72
2018-12-02T11:12:55.964Z,18.35
2018-12-02T11:15:25.235Z,16.60
2018-12-02T11:17:53.113Z,17.05
2018-12-02T11:21:24.035Z,17.70
2018-12-02T11:23:51.763Z,18.10
2018-12-02T11:26:19.501Z,17.67
2018-12-02T11:28:47.352Z,17.85
2018-12-02T11:31:15.084Z,16.37
2018-12-02T11:33:42.898Z,16.77
2018-12-02T11:36:10.720Z,17.62
2018-12-02T11:38:38.536Z,16.93
2018-12-02T11:41:06.679Z,16.97
2018-12-02T11:43:34.474Z,17.12
2018-12-02T11:46:02.279Z,23.32
2018-12-02T11:48:30.024Z,20.05
2018-12-02T11:50:57.830Z,15.78
2018-12-02T11:53:25.606Z,17.80
2018-12-02T11:55:53.415Z,16.75
2018-12-02T11:58:21.231Z,18.20
2018-12-02T12:00:48.980Z,17.15
2018-12-02T12:03:16.708Z,16.27
2018-12-02T12:05:44.414Z,15.48
2018-12-02T12:08:12.238Z,15.35
2018-12-02T12:10:40.083Z,16.85
2018-12-02T12:13:07.811Z,15.55
2018-12-02T12:15:36.688Z,14.87
2018-12-02T12:18:05.561Z,15.03
2018-12-02T12:20:38.175Z,15.50
2018-12-02T12:23:07.156Z,16.25
2018-12-02T12:25:34.925Z,15.48
2018-12-02T12:28:02.690Z,14.28
2018-12-02T12:30:32.144Z,15.10
2018-12-02T12:33:00.012Z,15.70
2018-12-02T12:35:27.825Z,15.78
2018-12-02T12:37:55.633Z,15.35
2018-12-02T12:40:26.617Z,17.62
2018-12-02T12:42:57.274Z,18.52
2018-12-02T12:45:25.155Z,16.60
2018-12-02T12:47:52.848Z,17.12
2018-12-02T12:50:20.567Z,16.77
2018-12-02T12:52:48.332Z,17.37
2018-12-02T12:55:16.559Z,16.35
2018-12-02T12:57:44.747Z,16.20
2018-12-02T13:00:17.446Z,16.27
2018-12-02T13:02:45.590Z,26.77
2018-12-02T13:05:14.951Z,16.32
2018-12-02T13:07:42.688Z,16.35
2018-12-02T13:10:12.784Z,16.82
2018-12-02T13:12:40.820Z,17.02
2018-12-02T13:15:11.240Z,17.73
2018-12-02T13:17:39.151Z,17.37
2018-12-02T13:20:13.414Z,17.05
2018-12-02T13:22:41.381Z,17.55
2018-12-02T13:25:10.482Z,15.05
2018-12-02T13:27:38.294Z,15.23
2018-12-02T13:30:11.257Z,15.55
2018-12-02T13:32:39.036Z,17.37
2018-12-02T13:35:07.298Z,15.28
2018-12-02T13:37:35.010Z,17.67
2018-12-02T13:40:03.062Z,17.37
2018-12-02T13:42:30.830Z,18.92
2018-12-02T13:44:58.670Z,17.10
2018-12-02T13:47:26.503Z,16.82
2018-12-02T13:49:54.227Z,16.70
2018-12-02T13:52:24.494Z,17.35
2018-12-02T13:54:54.514Z,18.50
2018-12-02T13:57:24.527Z,17.82
2018-12-02T13:59:54.199Z,17.75
2018-12-02T14:02:22.236Z,16.97
2018-12-02T14:04:50.983Z,18.90
2018-12-02T14:07:20.708Z,16.25
2018-12-02T14:09:49.816Z,16.42
2018-12-02T14:12:24.819Z,16.02
2018-12-02T14:14:54.833Z,16.27
2018-12-02T14:17:24.560Z,16.32
2018-12-02T14:19:56.346Z,16.12
2018-12-02T14:22:25.260Z,15.20
2018-12-02T14:25:02.729Z,15.70
2018-12-02T14:27:28.118Z,15.48
2018-12-02T14:29:58.828Z,15.15
2018-12-02T14:32:28.346Z,16.48
2018-12-02T14:34:56.716Z,15.28
2018-12-02T14:37:37.804Z,16.23
2018-12-02T14:40:34.293Z,14.43
2018-12-02T14:43:10.020Z,14.23
2018-12-02T14:45:54.885Z,15.20
2018-12-02T14:48:23.060Z,14.95
2018-12-02T14:50:56.455Z,17.05
2018-12-02T14:53:25.354Z,15.13
2018-12-02T14:55:57.107Z,14.03
2018-12-02T14:58:27.597Z,14.18
2018-12-02T15:01:03.269Z,13.75
2018-12-02T15:03:42.483Z,13.83
2018-12-02T15:11:37.352Z,13.65
2018-12-02T15:14:17.325Z,12.18
2018-12-02T15:17:03.553Z,12.85
2018-12-02T15:19:33.921Z,12.73
2018-12-02T15:25:38.878Z,11.43
2018-12-02T15:28:10.546Z,12.60
2018-12-02T15:30:50.252Z,11.48
2018-12-02T15:33:29.777Z,12.90
2018-12-02T15:36:05.200Z,12.20
2018-12-02T15:38:41.901Z,12.40
2018-12-02T15:41:11.693Z,12.75
2018-12-02T15:43:40.891Z,13.03
2018-12-02T15:46:09.373Z,13.20
2018-12-02T15:48:38.457Z,14.58
2018-12-02T15:51:14.356Z,13.40
2018-12-02T15:53:59.677Z,14.35
2018-12-02T15:56:30.285Z,13.70
2018-12-02T15:59:08.878Z,13.08
2018-12-02T16:01:41.893Z,12.20
2018-12-02T16:04:29.831Z,12.28
2018-12-02T16:06:59.304Z,13.10
2018-12-02T16:09:29.198Z,13.25
2018-12-02T16:12:14.754Z,11.88
2018-12-02T16:17:31.739Z,10.38
2018-12-02T16:20:10.557Z,11.75
2018-12-02T16:23:00.878Z,10.58
2018-12-02T16:25:29.992Z,11.97
2018-12-02T16:28:08.635Z,11.33
2018-12-02T16:30:42.544Z,11.95
2018-12-02T16:33:12.373Z,10.20
2018-12-02T16:36:17.228Z,10.72
2018-12-02T16:38:46.870Z,11.20
2018-12-02T16:41:16.918Z,11.75
2018-12-02T16:43:50.513Z,10.65
2018-12-02T16:46:44.288Z,11.30
2018-12-02T16:49:17.362Z,9.25
2018-12-02T16:51:45.761Z,10.63
2018-12-02T16:54:36.573Z,11.63
2018-12-02T16:57:09.305Z,11.15
2018-12-02T16:59:42.287Z,10.45
2018-12-02T17:02:16.838Z,10.65
2018-12-02T17:04:46.487Z,10.40
2018-12-02T17:07:16.370Z,10.75
2018-12-02T17:09:53.141Z,10.32
2018-12-02T17:15:48.826Z,10.32
2018-12-02T17:18:19.431Z,11.20
2018-12-02T17:20:59.358Z,10.32
2018-12-02T17:23:27.924Z,11.10
2018-12-02T17:25:57.956Z,10.30
2018-12-02T17:28:49.474Z,9.55
2018-12-02T17:31:38.030Z,9.95
2018-12-02T17:34:09.068Z,9.75
2018-12-02T17:36:42.742Z,9.93
2018-12-02T17:39:15.326Z,9.38
2018-12-02T17:41:50.324Z,10.60
2018-12-02T17:44:20.504Z,10.32
2018-12-02T17:46:50.131Z,12.88
2018-12-02T17:49:21.227Z,11.00
2018-12-02T17:51:53.731Z,10.48
2018-12-02T17:54:22.261Z,10.05
2018-12-02T17:56:51.488Z,10.40
2018-12-02T17:59:19.940Z,11.65
2018-12-02T18:01:48.081Z,11.73
2018-12-02T18:04:17.949Z,11.50
2018-12-02T18:06:47.089Z,10.93
2018-12-02T18:09:16.870Z,11.75
2018-12-02T18:11:45.089Z,12.18
2018-12-02T18:14:13.711Z,11.33
2018-12-02T18:16:42.349Z,11.50
2018-12-02T18:19:13.355Z,11.70
2018-12-02T18:21:45.829Z,11.00
2018-12-02T18:24:16.218Z,11.57
2018-12-02T18:26:46.067Z,11.28
2018-12-02T18:29:16.063Z,11.97
2018-12-02T18:31:44.769Z,12.55
2018-12-02T18:34:14.053Z,12.15
2018-12-02T18:36:42.926Z,11.63
2018-12-02T18:39:14.278Z,10.85
2018-12-02T18:41:46.884Z,11.38
2018-12-02T18:44:37.788Z,10.35
2018-12-02T18:47:09.238Z,10.30
2018-12-02T18:49:41.823Z,10.85
2018-12-02T18:52:15.923Z,10.80
2018-12-02T18:54:46.688Z,10.88
2018-12-02T18:57:35.305Z,11.35
2018-12-02T19:00:09.226Z,10.70
2018-12-02T19:03:14.201Z,11.25
2018-12-02T19:05:45.093Z,11.53
2018-12-02T19:08:13.787Z,11.00
2018-12-02T19:10:42.824Z,11.75
2018-12-02T19:13:16.284Z,10.58
2018-12-02T19:15:45.837Z,10.82
2018-12-02T19:18:19.976Z,12.93
2018-12-02T19:20:52.512Z,13.30
2018-12-02T19:23:34.765Z,12.30
2018-12-02T19:26:08.173Z,12.13
2018-12-02T19:28:36.575Z,11.83
2018-12-02T19:31:06.949Z,12.53
2018-12-02T19:33:36.319Z,12.80
2018-12-02T19:36:15.695Z,12.00
2018-12-02T19:38:46.535Z,11.60
2018-12-02T19:41:19.011Z,12.40
2018-12-02T19:43:47.314Z,11.60
2018-12-02T19:46:17.611Z,11.90
2018-12-02T19:48:48.117Z,13.55
2018-12-02T19:51:17.541Z,13.28
2018-12-02T19:53:47.103Z,12.68
2018-12-02T19:56:15.610Z,12.80
2018-12-02T19:58:47.048Z,13.40
2018-12-02T20:01:15.359Z,12.68
2018-12-02T20:03:44.827Z,12.60
2018-12-02T20:06:14.237Z,13.30
2018-12-02T20:08:55.143Z,13.43
2018-12-02T20:11:23.814Z,13.35
2018-12-02T20:13:54.197Z,12.30
2018-12-02T20:16:25.406Z,14.15
2018-12-02T20:19:07.046Z,14.45
2018-12-02T20:21:50.910Z,12.70
2018-12-02T20:27:09.288Z,13.15
2018-12-02T20:29:59.212Z,13.10
2018-12-02T20:32:29.993Z,13.15
2018-12-02T20:34:59.272Z,13.08
2018-12-02T20:37:28.550Z,13.80
2018-12-02T20:39:57.174Z,12.68
2018-12-02T20:42:28.888Z,13.80
2018-12-02T20:44:58.303Z,14.18
2018-12-02T20:47:41.152Z,12.80
2018-12-02T20:50:18.641Z,13.08
2018-12-02T20:52:50.438Z,12.70
2018-12-02T20:55:24.246Z,14.13
2018-12-02T20:58:01.612Z,13.60
2018-12-02T21:00:37.882Z,14.70
2018-12-02T21:09:34.346Z,14.18
2018-12-02T21:12:04.449Z,15.45
2018-12-02T21:14:33.544Z,13.65
2018-12-02T21:19:56.796Z,14.80
2018-12-02T21:22:27.932Z,14.50
2018-12-02T21:25:02.938Z,14.53
2018-12-02T21:27:41.309Z,14.93
2018-12-02T21:30:14.502Z,13.70
2018-12-02T21:32:42.374Z,13.88
2018-12-02T21:35:10.243Z,14.38
2018-12-02T21:37:38.073Z,14.40
2018-12-02T21:40:09.599Z,15.40
2018-12-02T21:42:37.355Z,14.87
2018-12-02T21:45:07.279Z,14.63
2018-12-02T21:47:35.118Z,15.00
2018-12-02T21:50:04.047Z,14.28
2018-12-02T21:52:31.896Z,14.45
2018-12-02T21:54:59.679Z,13.93
2018-12-02T21:57:27.491Z,15.00
2018-12-02T21:59:55.345Z,13.53
2018-12-02T22:02:23.173Z,14.20
2018-12-02T22:04:50.951Z,13.48
2018-12-02T22:07:18.715Z,14.35
2018-12-02T22:09:46.451Z,15.48
2018-12-02T22:12:14.296Z,14.95
2018-12-02T22:14:42.083Z,14.33
2018-12-02T22:17:09.963Z,14.40
2018-12-02T22:19:37.762Z,15.15
2018-12-02T22:22:05.885Z,15.23
2018-12-02T22:24:33.667Z,14.50
2018-12-02T22:27:01.440Z,13.95
2018-12-02T22:29:29.244Z,13.70
2018-12-02T22:31:57.047Z,13.25
2018-12-02T22:34:24.791Z,14.05
2018-12-02T22:36:52.618Z,14.78
2018-12-02T22:39:20.421Z,14.20
2018-12-02T22:41:48.169Z,14.25
2018-12-02T22:44:15.940Z,14.70
2018-12-02T22:46:43.765Z,14.45
2018-12-02T22:49:11.488Z,14.73
2018-12-02T22:51:39.349Z,15.20
2018-12-02T22:54:07.172Z,14.73
2018-12-02T22:56:35.025Z,14.90
2018-12-02T22:59:02.869Z,15.03
2018-12-02T23:01:36.120Z,14.33
2018-12-02T23:04:04.323Z,14.23
2018-12-02T23:06:32.234Z,14.28
2018-12-02T23:09:00.180Z,15.25
2018-12-02T23:11:28.084Z,15.13
2018-12-02T23:13:55.980Z,14.25
2018-12-02T23:16:23.851Z,13.30
2018-12-02T23:18:51.728Z,14.30
2018-12-02T23:21:19.573Z,14.60
2018-12-02T23:23:47.333Z,14.60
2018-12-02T23:26:15.218Z,15.28
2018-12-02T23:28:43.004Z,14.38
2018-12-02T23:31:10.882Z,15.55
2018-12-02T23:33:38.764Z,16.02
2018-12-02T23:36:06.648Z,14.40
2018-12-02T23:38:34.541Z,14.00
2018-12-02T23:41:02.425Z,14.23
2018-12-02T23:43:30.297Z,13.45
2018-12-02T23:45:58.179Z,15.32
2018-12-02T23:48:26.073Z,15.32
2018-12-02T23:50:53.903Z,14.13
2018-12-02T23:53:21.827Z,13.30
2018-12-02T23:55:49.771Z,13.00
2018-12-02T23:58:17.700Z,13.00
